createdAt,value
2023-03-01T00:01:37.062Z,1.25
2023-03-01T00:04:03.547Z,1.63
2023-03-01T00:06:30.330Z,1.35
2023-03-01T00:08:57.098Z,1.00
2023-03-01T00:11:24.758Z,1.63
2023-03-01T00:13:52.975Z,1.80
2023-03-01T00:16:20.949Z,1.52
2023-03-01T00:18:47.554Z,1.60
2023-03-01T00:21:14.256Z,1.27
2023-03-01T00:23:40.903Z,0.90
2023-03-01T00:26:08.585Z,1.73
2023-03-01T00:28:35.275Z,1.30
2023-03-01T00:31:05.675Z,1.30
2023-03-01T00:33:32.374Z,1.00
2023-03-01T00:35:59.768Z,1.17
2023-03-01T00:38:26.346Z,1.10
2023-03-01T00:40:52.896Z,0.98
2023-03-01T00:43:19.767Z,1.42
2023-03-01T00:45:46.352Z,1.17
2023-03-01T00:48:13.058Z,1.92
2023-03-01T00:50:39.865Z,1.55
2023-03-01T00:53:06.553Z,2.28
2023-03-01T00:55:33.094Z,1.52
2023-03-01T00:57:59.604Z,2.13
2023-03-01T01:00:28.577Z,1.40
2023-03-01T01:02:55.149Z,1.88
2023-03-01T01:05:21.906Z,1.90
2023-03-01T01:07:49.338Z,1.20
2023-03-01T01:10:18.146Z,1.55
2023-03-01T01:12:45.637Z,1.20
2023-03-01T01:15:14.812Z,1.23
2023-03-01T01:17:41.824Z,0.90
2023-03-01T01:20:08.807Z,0.88
2023-03-01T01:22:35.273Z,1.90
2023-03-01T01:25:01.740Z,0.95
2023-03-01T01:27:28.258Z,0.85
2023-03-01T01:29:54.749Z,0.90
2023-03-01T01:32:21.253Z,1.00
2023-03-01T01:34:47.774Z,1.48
2023-03-01T01:37:14.285Z,1.00
2023-03-01T01:39:40.774Z,0.80
2023-03-01T01:42:07.341Z,0.75
2023-03-01T01:44:34.796Z,0.82
2023-03-01T01:47:27.403Z,0.90
2023-03-01T01:49:55.583Z,0.75
2023-03-01T01:52:22.143Z,1.02
2023-03-01T01:54:53.165Z,0.90
2023-03-01T01:57:22.587Z,0.93
2023-03-01T01:59:52.430Z,0.63
2023-03-01T02:02:19.121Z,0.60
2023-03-01T02:04:45.954Z,0.70
2023-03-01T02:07:16.898Z,0.60
2023-03-01T02:09:46.333Z,0.85
2023-03-01T02:12:13.683Z,1.10
2023-03-01T02:14:40.194Z,0.60
2023-03-01T02:17:06.680Z,0.60
2023-03-01T02:19:36.207Z,0.50
2023-03-01T02:22:02.668Z,0.60
2023-03-01T02:24:47.382Z,0.70
2023-03-01T02:27:14.224Z,0.52
2023-03-01T02:29:40.699Z,0.70
2023-03-01T02:32:07.667Z,0.63
2023-03-01T02:34:34.259Z,0.60
2023-03-01T02:37:10.681Z,0.88
2023-03-01T02:39:43.518Z,1.10
2023-03-01T02:42:15.974Z,0.60
2023-03-01T02:44:42.481Z,0.60
2023-03-01T02:47:09.068Z,0.70
2023-03-01T02:49:36.567Z,0.60
2023-03-01T02:52:03.663Z,0.73
2023-03-01T02:54:50.405Z,1.05
2023-03-01T02:57:16.960Z,1.13
2023-03-01T02:59:44.025Z,0.80
2023-03-01T03:02:39.623Z,0.68
2023-03-01T03:05:10.937Z,1.00
2023-03-01T03:07:38.500Z,0.90
2023-03-01T03:10:06.363Z,0.88
2023-03-01T03:12:33.256Z,1.67
2023-03-01T03:14:59.736Z,1.27
2023-03-01T03:17:26.425Z,0.95
2023-03-01T03:19:52.933Z,0.75
2023-03-01T03:22:19.428Z,0.98
2023-03-01T03:24:45.926Z,1.20
2023-03-01T03:27:12.488Z,0.77
2023-03-01T03:29:39.009Z,1.10
2023-03-01T03:32:05.577Z,0.60
2023-03-01T03:34:32.279Z,1.20
2023-03-01T03:37:00.446Z,0.70
2023-03-01T03:39:28.065Z,0.90
2023-03-01T03:41:54.750Z,0.95
2023-03-01T03:44:21.642Z,0.95
2023-03-01T03:46:48.122Z,0.93
2023-03-01T03:49:14.626Z,0.70
2023-03-01T03:51:41.206Z,0.77
2023-03-01T03:54:07.714Z,0.73
2023-03-01T03:56:34.459Z,1.20
2023-03-01T03:59:01.148Z,0.90
2023-03-01T04:01:27.667Z,0.73
2023-03-01T04:03:55.551Z,1.25
2023-03-01T04:06:22.267Z,0.88
2023-03-01T04:08:52.101Z,1.23
2023-03-01T04:11:27.787Z,1.60
2023-03-01T04:13:55.431Z,0.82
2023-03-01T04:16:22.072Z,0.88
2023-03-01T04:18:48.658Z,0.82
2023-03-01T04:21:15.189Z,0.88
2023-03-01T04:23:44.560Z,1.10
2023-03-01T04:26:11.041Z,0.80
2023-03-01T04:28:39.365Z,0.77
2023-03-01T04:31:18.397Z,0.98
2023-03-01T04:33:53.566Z,0.95
2023-03-01T04:36:21.818Z,1.13
2023-03-01T04:38:48.557Z,0.70
2023-03-01T04:41:16.342Z,0.98
2023-03-01T04:43:43.097Z,0.63
2023-03-01T04:46:13.922Z,0.60
2023-03-01T04:48:42.682Z,0.50
2023-03-01T04:51:09.624Z,0.95
2023-03-01T04:53:39.295Z,0.60
2023-03-01T04:56:06.072Z,0.73
2023-03-01T04:58:32.727Z,0.50
2023-03-01T05:00:59.584Z,0.50
2023-03-01T05:03:26.165Z,0.60
2023-03-01T05:05:53.542Z,0.60
2023-03-01T05:08:20.132Z,0.93
2023-03-01T05:10:50.565Z,0.88
2023-03-01T05:13:22.054Z,1.27
2023-03-01T05:15:55.491Z,0.80
2023-03-01T05:18:22.184Z,0.90
2023-03-01T05:20:48.733Z,0.98
2023-03-01T05:23:15.220Z,0.93
2023-03-01T05:25:41.704Z,1.10
2023-03-01T05:28:11.649Z,1.38
2023-03-01T05:30:40.204Z,1.85
2023-03-01T05:33:11.448Z,1.27
2023-03-01T05:35:38.100Z,1.55
2023-03-01T05:38:04.630Z,1.02
2023-03-01T05:40:31.233Z,1.00
2023-03-01T05:42:58.240Z,0.95
2023-03-01T05:45:26.126Z,1.15
2023-03-01T05:47:52.924Z,1.30
2023-03-01T05:50:23.638Z,2.03
2023-03-01T05:52:51.696Z,1.20
2023-03-01T05:55:19.053Z,2.08
2023-03-01T05:57:45.650Z,1.30
2023-03-01T06:00:12.938Z,1.30
2023-03-01T06:02:40.015Z,1.42
2023-03-01T06:05:07.968Z,1.42
2023-03-01T06:07:34.970Z,1.70
2023-03-01T06:10:01.672Z,1.08
2023-03-01T06:12:31.417Z,1.45
2023-03-01T06:14:57.928Z,1.17
2023-03-01T06:17:24.411Z,1.95
2023-03-01T06:19:50.891Z,1.15
2023-03-01T06:22:17.401Z,1.33
2023-03-01T06:24:43.910Z,1.55
2023-03-01T06:27:10.438Z,1.85
2023-03-01T06:29:36.922Z,1.30
2023-03-01T06:32:03.970Z,4.05
2023-03-01T06:34:30.766Z,2.08
2023-03-01T06:36:57.333Z,1.95
2023-03-01T06:39:23.904Z,1.13
2023-03-01T06:41:50.444Z,3.15
2023-03-01T06:44:16.989Z,1.92
2023-03-01T06:46:43.564Z,3.55
2023-03-01T06:49:10.572Z,1.63
2023-03-01T06:51:38.124Z,3.08
2023-03-01T06:54:07.730Z,1.50
2023-03-01T06:56:34.474Z,0.47
2023-03-01T06:59:01.168Z,1.13
2023-03-01T07:01:27.747Z,0.98
2023-03-01T07:03:54.317Z,0.80
2023-03-01T07:06:21.126Z,0.43
2023-03-01T07:08:47.832Z,0.52
2023-03-01T07:11:14.629Z,0.70
2023-03-01T07:13:41.134Z,0.60
2023-03-01T07:16:07.887Z,0.60
2023-03-01T07:18:34.486Z,0.70
2023-03-01T07:21:12.381Z,0.60
2023-03-01T07:23:38.897Z,0.50
2023-03-01T07:26:05.842Z,0.60
2023-03-01T07:28:32.438Z,0.63
2023-03-01T07:31:03.370Z,0.60
2023-03-01T07:33:30.040Z,0.60
2023-03-01T07:35:57.284Z,0.77
2023-03-01T07:38:24.137Z,0.80
2023-03-01T07:40:50.632Z,1.10
2023-03-01T07:43:17.139Z,0.70
2023-03-01T07:45:43.750Z,0.70
2023-03-01T07:48:10.758Z,0.65
2023-03-01T07:50:37.237Z,1.00
2023-03-01T07:53:03.882Z,0.70
2023-03-01T07:55:30.414Z,0.70
2023-03-01T07:57:56.929Z,1.23
2023-03-01T08:00:23.593Z,0.85
2023-03-01T08:02:50.125Z,0.90
2023-03-01T08:05:16.790Z,0.80
2023-03-01T08:07:43.307Z,1.13
2023-03-01T08:10:10.183Z,1.08
2023-03-01T08:12:36.665Z,0.82
2023-03-01T08:15:03.233Z,0.70
2023-03-01T08:17:29.808Z,1.00
2023-03-01T08:19:56.488Z,1.00
2023-03-01T08:22:22.970Z,1.10
2023-03-01T08:24:49.484Z,1.40
2023-03-01T08:27:16.610Z,1.50
2023-03-01T08:29:43.100Z,0.60
2023-03-01T08:32:09.748Z,1.10
2023-03-01T08:34:36.696Z,1.00
2023-03-01T08:37:03.295Z,1.00
2023-03-01T08:39:30.132Z,0.90
2023-03-01T08:41:56.699Z,1.27
2023-03-01T08:44:23.293Z,1.15
2023-03-01T08:46:51.087Z,1.10
2023-03-01T08:49:18.499Z,5.32
2023-03-01T08:51:45.394Z,12.93
2023-03-01T08:54:13.001Z,6.53
2023-03-01T08:56:39.670Z,3.50
2023-03-01T08:59:06.300Z,2.55
2023-03-01T09:01:32.873Z,3.00
2023-03-01T09:03:59.609Z,2.28
2023-03-01T09:06:26.398Z,2.25
2023-03-01T09:08:53.062Z,1.70
2023-03-01T09:11:20.936Z,1.27
2023-03-01T09:13:48.854Z,1.08
2023-03-01T09:16:20.208Z,1.08
2023-03-01T09:18:49.724Z,0.77
2023-03-01T09:21:18.287Z,0.77
2023-03-01T09:23:46.686Z,1.45
2023-03-01T09:26:15.619Z,0.35
2023-03-01T09:28:42.216Z,0.73
2023-03-01T09:31:08.710Z,0.77
2023-03-01T09:33:35.620Z,0.60
2023-03-01T09:36:03.857Z,0.88
2023-03-01T09:38:31.075Z,0.90
2023-03-01T09:40:57.741Z,0.50
2023-03-01T09:43:24.490Z,0.70
2023-03-01T09:45:52.693Z,1.23
2023-03-01T09:48:25.002Z,1.17
2023-03-01T09:50:52.167Z,1.08
2023-03-01T09:53:29.434Z,1.10
2023-03-01T09:55:59.601Z,0.88
2023-03-01T09:58:36.248Z,0.65
2023-03-01T10:01:25.787Z,0.85
2023-03-01T10:04:12.571Z,0.63
2023-03-01T10:06:39.638Z,0.88
2023-03-01T10:09:14.633Z,2.13
2023-03-01T10:11:49.641Z,1.00
2023-03-01T10:14:37.770Z,1.13
2023-03-01T10:17:06.210Z,0.68
2023-03-01T10:19:38.906Z,0.63
2023-03-01T10:22:14.568Z,1.00
2023-03-01T10:24:41.178Z,0.85
2023-03-01T10:27:27.911Z,0.90
2023-03-01T10:30:08.276Z,1.20
2023-03-01T10:32:35.390Z,0.90
2023-03-01T10:35:02.220Z,1.02
2023-03-01T10:37:29.419Z,1.25
2023-03-01T10:39:55.957Z,1.20
2023-03-01T10:42:36.514Z,1.00
2023-03-01T10:45:17.208Z,1.27
2023-03-01T10:47:43.810Z,0.90
2023-03-01T10:50:23.444Z,1.02
2023-03-01T10:53:00.873Z,0.95
2023-03-01T10:55:47.633Z,1.33
2023-03-01T10:58:20.161Z,1.13
2023-03-01T11:00:53.691Z,0.88
2023-03-01T11:03:25.761Z,0.75
2023-03-01T11:05:58.492Z,0.70
2023-03-01T11:08:34.776Z,1.08
2023-03-01T11:11:06.113Z,1.42
2023-03-01T11:13:32.736Z,0.90
2023-03-01T11:16:07.863Z,0.52
2023-03-01T11:18:47.114Z,0.80
2023-03-01T11:21:15.995Z,0.85
2023-03-01T11:23:44.292Z,0.90
2023-03-01T11:26:12.915Z,0.60
2023-03-01T11:28:41.302Z,0.82
2023-03-01T11:31:20.096Z,0.63
2023-03-01T11:34:00.862Z,1.05
2023-03-01T11:36:36.487Z,0.70
2023-03-01T11:39:04.819Z,0.50
2023-03-01T11:41:33.170Z,1.63
2023-03-01T11:44:05.008Z,2.60
2023-03-01T11:46:43.927Z,5.28
2023-03-01T11:49:15.445Z,1.00
2023-03-01T11:52:00.421Z,3.42
2023-03-01T11:54:33.094Z,1.77
2023-03-01T11:57:08.927Z,1.00
2023-03-01T11:59:35.563Z,1.33
2023-03-01T12:02:11.004Z,0.80
2023-03-01T12:04:52.931Z,1.10
2023-03-01T12:07:28.537Z,0.82
2023-03-01T12:10:04.032Z,0.95
2023-03-01T12:12:38.847Z,1.05
2023-03-01T12:15:12.871Z,1.20
2023-03-01T12:18:00.656Z,1.00
2023-03-01T12:20:30.602Z,1.10
2023-03-01T12:23:20.102Z,0.88
2023-03-01T12:26:05.778Z,1.10
2023-03-01T12:28:46.629Z,0.80
2023-03-01T12:31:13.163Z,0.70
2023-03-01T12:33:58.498Z,0.80
2023-03-01T12:36:28.095Z,1.13
2023-03-01T12:39:06.425Z,1.13
2023-03-01T12:41:51.470Z,0.85
2023-03-01T12:44:36.721Z,1.13
2023-03-01T12:47:03.201Z,1.10
2023-03-01T12:49:33.042Z,2.35
2023-03-01T12:52:02.567Z,1.30
2023-03-01T12:54:33.799Z,1.98
2023-03-01T12:57:20.536Z,1.33
2023-03-01T13:00:10.687Z,1.17
2023-03-01T13:02:40.397Z,1.23
2023-03-01T13:05:16.013Z,1.10
2023-03-01T13:07:52.574Z,1.65
2023-03-01T13:10:23.895Z,1.25
2023-03-01T13:12:50.533Z,1.40
2023-03-01T13:15:23.288Z,2.03
2023-03-01T13:17:50.826Z,0.75
2023-03-01T13:20:21.301Z,1.60
2023-03-01T13:22:54.792Z,1.33
2023-03-01T13:25:22.201Z,1.33
2023-03-01T13:27:49.631Z,1.50
2023-03-01T13:30:34.532Z,1.20
2023-03-01T13:33:19.787Z,1.30
2023-03-01T13:35:46.389Z,1.30
2023-03-01T13:38:31.659Z,1.20
2023-03-01T13:41:00.180Z,1.50
2023-03-01T13:43:31.210Z,1.80
2023-03-01T13:45:58.655Z,1.27
2023-03-01T13:48:26.857Z,1.50
2023-03-01T13:51:01.974Z,1.65
2023-03-01T13:53:30.964Z,1.30
2023-03-01T13:56:23.919Z,1.67
2023-03-01T13:58:52.900Z,1.10
2023-03-01T14:01:24.284Z,1.48
2023-03-01T14:03:50.923Z,1.02
2023-03-01T14:06:21.273Z,1.40
2023-03-01T14:08:48.684Z,1.60
2023-03-01T14:11:26.954Z,1.27
2023-03-01T14:13:53.394Z,2.05
2023-03-01T14:16:19.834Z,1.45
2023-03-01T14:18:53.686Z,2.33
2023-03-01T14:23:47.862Z,13.18
2023-03-01T14:26:14.413Z,3.90
2023-03-01T14:28:43.225Z,11.13
2023-03-01T14:31:28.494Z,2.47
2023-03-01T14:33:56.533Z,16.48
2023-03-01T14:36:28.177Z,10.05
2023-03-01T14:38:55.400Z,5.97
2023-03-01T14:41:26.784Z,4.03
2023-03-01T14:43:54.937Z,2.65
2023-03-01T14:46:22.745Z,2.35
2023-03-01T14:48:50.528Z,1.80
2023-03-01T14:51:17.117Z,2.10
2023-03-01T14:53:50.923Z,2.05
2023-03-01T14:56:20.823Z,1.63
2023-03-01T14:58:50.731Z,1.48
2023-03-01T15:01:18.353Z,4.05
2023-03-01T15:03:46.981Z,1.50
2023-03-01T15:06:16.875Z,1.50
2023-03-01T15:08:46.006Z,1.30
2023-03-01T15:11:25.592Z,1.60
2023-03-01T15:13:53.354Z,1.73
2023-03-01T15:16:21.507Z,1.58
2023-03-01T15:18:49.588Z,1.52
2023-03-01T15:21:18.199Z,1.58
2023-03-01T15:23:49.343Z,1.67
2023-03-01T15:26:24.201Z,2.75
2023-03-01T15:28:51.539Z,1.98
2023-03-01T15:31:23.812Z,1.70
2023-03-01T15:33:50.917Z,1.40
2023-03-01T15:36:32.711Z,1.50
2023-03-01T15:39:00.694Z,1.13
2023-03-01T15:41:38.565Z,1.75
2023-03-01T15:44:26.189Z,1.30
2023-03-01T15:46:53.466Z,2.15
2023-03-01T15:49:49.551Z,1.67
2023-03-01T15:52:40.587Z,1.40
2023-03-01T15:55:15.206Z,1.50
2023-03-01T15:57:41.764Z,1.33
2023-03-01T16:00:14.488Z,0.80
2023-03-01T16:02:41.928Z,0.93
2023-03-01T16:05:24.283Z,0.50
2023-03-01T16:07:51.520Z,1.10
2023-03-01T16:10:18.367Z,0.90
2023-03-01T16:12:44.982Z,0.85
2023-03-01T16:15:29.523Z,1.00
2023-03-01T16:17:59.139Z,0.88
2023-03-01T16:20:29.066Z,1.00
2023-03-01T16:22:59.486Z,0.90
2023-03-01T16:25:26.363Z,1.10
2023-03-01T16:27:53.194Z,1.23
2023-03-01T16:30:20.997Z,0.80
2023-03-01T16:32:48.417Z,1.27
2023-03-01T16:35:15.920Z,1.33
2023-03-01T16:37:43.078Z,1.13
2023-03-01T16:40:27.896Z,1.40
2023-03-01T16:42:56.298Z,1.30
2023-03-01T16:45:24.710Z,1.42
2023-03-01T16:47:54.442Z,1.15
2023-03-01T16:50:22.120Z,1.38
2023-03-01T16:52:48.665Z,1.55
2023-03-01T16:55:15.210Z,2.10
2023-03-01T16:57:41.801Z,1.40
2023-03-01T17:00:14.287Z,2.00
2023-03-01T17:02:42.093Z,1.77
2023-03-01T17:05:09.141Z,1.60
2023-03-01T17:07:35.855Z,1.75
2023-03-01T17:10:03.195Z,6.22
2023-03-01T17:12:29.716Z,15.80
2023-03-01T17:14:56.228Z,7.88
2023-03-01T17:17:22.807Z,5.53
2023-03-01T17:19:49.356Z,11.43
2023-03-01T17:22:16.295Z,5.75
2023-03-01T17:24:43.242Z,10.25
2023-03-01T17:27:09.989Z,6.47
2023-03-01T17:29:38.254Z,4.35
2023-03-01T17:32:05.077Z,2.83
2023-03-01T17:34:32.353Z,2.88
2023-03-01T17:36:59.068Z,2.75
2023-03-01T17:39:29.350Z,2.55
2023-03-01T17:41:57.545Z,3.10
2023-03-01T17:44:24.116Z,2.10
2023-03-01T17:46:50.644Z,3.03
2023-03-01T17:49:18.313Z,3.70
2023-03-01T17:51:45.690Z,2.40
2023-03-01T17:54:12.378Z,2.63
2023-03-01T17:56:39.062Z,2.83
2023-03-01T17:59:06.862Z,3.08
2023-03-01T18:01:35.791Z,2.65
2023-03-01T18:04:02.464Z,3.50
2023-03-01T18:06:29.202Z,3.00
2023-03-01T18:08:56.415Z,2.58
2023-03-01T18:11:23.530Z,2.75
2023-03-01T18:13:51.181Z,3.72
2023-03-01T18:16:19.201Z,3.90
2023-03-01T18:18:45.909Z,2.70
2023-03-01T18:21:12.806Z,4.22
2023-03-01T18:23:39.789Z,4.05
2023-03-01T18:26:17.778Z,3.80
2023-03-01T18:28:47.578Z,2.60
2023-03-01T18:31:18.249Z,3.55
2023-03-01T18:33:45.373Z,4.22
2023-03-01T18:36:20.060Z,4.10
2023-03-01T18:38:46.682Z,3.08
2023-03-01T18:41:13.242Z,3.03
2023-03-01T18:43:39.730Z,4.07
2023-03-01T18:46:06.265Z,3.35
2023-03-01T18:48:32.874Z,2.88
2023-03-01T18:51:07.270Z,3.38
2023-03-01T18:53:33.769Z,3.33
2023-03-01T18:56:00.313Z,3.90
2023-03-01T18:58:26.886Z,4.65
2023-03-01T19:00:53.477Z,4.00
2023-03-01T19:03:20.009Z,5.63
2023-03-01T19:05:46.512Z,5.10
2023-03-01T19:08:13.015Z,4.53
2023-03-01T19:10:39.542Z,4.60
2023-03-01T19:13:06.399Z,4.00
2023-03-01T19:15:33.807Z,5.15
2023-03-01T19:18:02.420Z,4.65
2023-03-01T19:20:30.291Z,4.95
2023-03-01T19:22:58.062Z,4.43
2023-03-01T19:25:25.184Z,5.93
2023-03-01T19:27:52.466Z,5.13
2023-03-01T19:30:20.268Z,3.60
2023-03-01T19:32:49.405Z,5.15
2023-03-01T19:35:17.921Z,4.88
2023-03-01T19:37:45.557Z,6.40
2023-03-01T19:40:13.619Z,5.68
2023-03-01T19:42:40.468Z,5.70
2023-03-01T19:45:07.842Z,4.65
2023-03-01T19:47:34.601Z,5.05
2023-03-01T19:50:02.563Z,4.30
2023-03-01T19:52:30.400Z,5.22
2023-03-01T19:55:07.419Z,5.28
2023-03-01T19:57:36.868Z,3.92
2023-03-01T20:00:05.273Z,4.07
2023-03-01T20:02:33.043Z,4.55
2023-03-01T20:05:00.482Z,4.93
2023-03-01T20:07:27.598Z,4.68
2023-03-01T20:09:54.261Z,5.20
2023-03-01T20:12:21.469Z,5.10
2023-03-01T20:14:51.322Z,5.40
2023-03-01T20:17:19.279Z,3.97
2023-03-01T20:19:47.681Z,5.72
2023-03-01T20:22:15.156Z,6.03
2023-03-01T20:24:42.054Z,5.35
2023-03-01T20:27:08.693Z,5.78
2023-03-01T20:29:35.221Z,9.52
2023-03-01T20:32:02.777Z,9.07
2023-03-01T20:34:30.124Z,7.88
2023-03-01T20:37:05.714Z,6.90
2023-03-01T20:39:32.347Z,7.30
2023-03-01T20:41:59.126Z,6.55
2023-03-01T20:44:25.676Z,6.57
2023-03-01T20:46:52.313Z,6.88
2023-03-01T20:49:18.863Z,6.93
2023-03-01T20:51:45.474Z,6.97
2023-03-01T20:54:11.975Z,5.25
2023-03-01T20:56:38.457Z,6.10
2023-03-01T20:59:06.451Z,7.55
2023-03-01T21:01:35.183Z,5.25
2023-03-01T21:04:02.048Z,6.15
2023-03-01T21:06:28.854Z,7.95
2023-03-01T21:08:55.948Z,5.97
2023-03-01T21:11:25.594Z,6.00
2023-03-01T21:14:00.118Z,6.25
2023-03-01T21:16:26.784Z,5.55
2023-03-01T21:18:54.776Z,6.05
2023-03-01T21:21:22.749Z,5.45
2023-03-01T21:23:49.268Z,7.57
2023-03-01T21:26:20.002Z,6.78
2023-03-01T21:28:47.212Z,5.70
2023-03-01T21:31:15.068Z,5.25
2023-03-01T21:33:44.307Z,6.28
2023-03-01T21:36:10.948Z,5.13
2023-03-01T21:38:40.135Z,4.90
2023-03-01T21:41:08.407Z,7.03
2023-03-01T21:43:35.848Z,5.22
2023-03-01T21:46:03.801Z,5.03
2023-03-01T21:48:30.965Z,5.72
2023-03-01T21:51:00.981Z,7.30
2023-03-01T21:53:29.401Z,6.78
2023-03-01T21:55:55.914Z,8.88
2023-03-01T21:58:22.548Z,8.75
2023-03-01T22:00:49.383Z,7.95
2023-03-01T22:03:16.442Z,9.25
2023-03-01T22:05:43.018Z,16.33
2023-03-01T22:08:09.748Z,14.13
2023-03-01T22:10:39.286Z,14.80
2023-03-01T22:13:05.770Z,10.70
2023-03-01T22:15:32.276Z,14.45
2023-03-01T22:17:58.794Z,9.05
2023-03-01T22:20:25.498Z,13.60
2023-03-01T22:22:52.037Z,9.40
2023-03-01T22:25:18.957Z,10.45
2023-03-01T22:27:45.485Z,9.07
2023-03-01T22:30:12.228Z,6.10
2023-03-01T22:32:38.885Z,9.40
2023-03-01T22:35:05.802Z,9.43
2023-03-01T22:37:32.341Z,6.55
2023-03-01T22:39:58.875Z,8.90
2023-03-01T22:42:25.408Z,5.18
2023-03-01T22:44:51.950Z,5.40
2023-03-01T22:47:18.501Z,4.88
2023-03-01T22:49:45.150Z,5.18
2023-03-01T22:52:11.714Z,4.80
2023-03-01T22:54:38.271Z,4.60
2023-03-01T22:57:04.822Z,4.53
2023-03-01T22:59:31.304Z,4.32
2023-03-01T23:01:57.873Z,4.40
2023-03-01T23:04:24.511Z,5.60
2023-03-01T23:06:51.811Z,3.88
2023-03-01T23:09:19.329Z,4.57
2023-03-01T23:11:45.890Z,5.05
2023-03-01T23:14:12.460Z,4.32
2023-03-01T23:16:39.061Z,4.15
2023-03-01T23:19:05.583Z,4.40
2023-03-01T23:21:33.066Z,5.28
2023-03-01T23:23:59.730Z,4.30
2023-03-01T23:26:27.036Z,3.72
2023-03-01T23:28:54.661Z,4.07
2023-03-01T23:31:21.261Z,4.55
2023-03-01T23:33:48.247Z,4.22
2023-03-01T23:36:14.792Z,3.65
2023-03-01T23:38:41.510Z,4.60
2023-03-01T23:41:11.594Z,3.20
2023-03-01T23:43:38.145Z,2.60
2023-03-01T23:46:05.147Z,3.15
2023-03-01T23:48:31.665Z,3.30
2023-03-01T23:51:03.295Z,3.50
2023-03-01T23:53:29.806Z,3.67
2023-03-01T23:55:56.574Z,3.20
2023-03-01T23:58:28.606Z,3.83
